Shady Lake, New Jersey
Current Conditions -  °F | °C
As of 7:53 AM on Wednesday 26 Nov 2014 (Local Time) from KFWN Reporting Station
Light Rain Light Rain  
Wind Chill: 33°   Ceiling: 3400
Heat Index: 39°   Visibility: 10mi
Dew Point: 30°   Wind: 8mph
Humidity: 70%   Direction: 40°NE
Pressure: 30.13"   Gusts: NA
Location:  41.0879°N, 74.3771°W
Report Text: KFWN 261253Z AUTO 04007KT 10SM -RA OVC034 04/M01 A3013 RMK AO2 RAB39 SLP207 P0000 T00391011
Loading
Personal Weather Stations






























Interactive Weather Map New forecast layout! Learn more

10-Day Weather Forecast

Advertisements
Track Severe Weather on mobile